createdAt,value
2023-03-29T00:01:49.965Z,99.58
2023-03-29T00:06:52.998Z,99.47
2023-03-29T00:11:56.083Z,99.45
2023-03-29T00:17:00.723Z,99.53
2023-03-29T00:22:05.966Z,99.66
2023-03-29T00:27:09.068Z,99.36
2023-03-29T00:32:13.658Z,99.43
2023-03-29T00:37:16.688Z,99.16
2023-03-29T00:42:20.185Z,99.48
2023-03-29T00:47:29.903Z,99.09
2023-03-29T00:52:34.997Z,99.03
2023-03-29T00:57:41.759Z,99.08
2023-03-29T01:02:54.546Z,98.98
2023-03-29T01:08:02.420Z,98.90
2023-03-29T01:13:10.495Z,99.06
2023-03-29T01:18:15.556Z,98.84
2023-03-29T01:23:46.239Z,98.88
2023-03-29T01:28:58.563Z,98.65
2023-03-29T01:34:08.753Z,98.40
2023-03-29T01:39:11.970Z,98.30
2023-03-29T01:44:20.989Z,98.24
2023-03-29T01:49:29.970Z,98.55
2023-03-29T01:54:37.176Z,98.71
2023-03-29T01:59:45.121Z,99.14
2023-03-29T02:04:55.144Z,98.70
2023-03-29T02:09:59.996Z,98.62
2023-03-29T02:15:07.089Z,99.04
2023-03-29T02:20:15.130Z,98.95
2023-03-29T02:25:18.934Z,99.03
2023-03-29T02:30:25.955Z,98.76
2023-03-29T02:35:37.292Z,98.79
2023-03-29T02:40:42.799Z,97.88
2023-03-29T02:45:52.129Z,98.03
2023-03-29T02:50:59.763Z,98.06
2023-03-29T02:56:04.504Z,98.20
2023-03-29T03:01:10.596Z,98.29
2023-03-29T03:06:13.860Z,98.43
2023-03-29T03:11:17.050Z,98.15
2023-03-29T03:16:21.889Z,98.56
2023-03-29T03:21:25.955Z,98.63
2023-03-29T03:26:30.292Z,98.67
2023-03-29T03:31:36.438Z,98.64
2023-03-29T03:36:50.955Z,98.60
2023-03-29T03:41:54.012Z,98.12
2023-03-29T03:46:58.819Z,98.26
2023-03-29T03:52:01.846Z,98.68
2023-03-29T03:57:04.954Z,98.37
2023-03-29T04:02:22.322Z,98.04
2023-03-29T04:07:25.836Z,98.33
2023-03-29T04:13:02.403Z,98.34
2023-03-29T04:18:09.763Z,98.55
2023-03-29T04:23:23.422Z,98.72
2023-03-29T04:28:26.758Z,98.47
2023-03-29T04:33:46.755Z,98.35
2023-03-29T04:38:54.656Z,98.48
2023-03-29T04:43:58.613Z,98.50
2023-03-29T04:49:05.126Z,98.29
2023-03-29T04:54:16.891Z,98.18
2023-03-29T04:59:40.079Z,98.33
2023-03-29T05:04:56.862Z,98.38
2023-03-29T05:10:00.965Z,98.36
2023-03-29T05:15:04.894Z,98.14
2023-03-29T05:20:11.384Z,98.19
2023-03-29T05:25:17.057Z,98.08
2023-03-29T05:30:20.673Z,98.32
2023-03-29T05:35:37.289Z,98.30
2023-03-29T05:40:43.996Z,98.94
2023-03-29T05:46:06.413Z,98.71
2023-03-29T05:51:12.533Z,99.39
2023-03-29T05:56:16.963Z,99.73
2023-03-29T06:01:20.677Z,99.73
2023-03-29T06:06:37.057Z,99.29
2023-03-29T06:11:40.931Z,99.00
2023-03-29T06:16:56.734Z,99.03
2023-03-29T06:22:04.855Z,98.60
2023-03-29T06:27:10.622Z,98.33
2023-03-29T06:32:17.785Z,97.71
2023-03-29T06:37:29.224Z,97.10
2023-03-29T06:42:44.702Z,96.96
2023-03-29T06:47:59.790Z,96.94
2023-03-29T06:53:05.560Z,96.54
2023-03-29T06:58:11.171Z,96.17
2023-03-29T07:03:20.429Z,95.48
2023-03-29T07:08:31.510Z,95.02
2023-03-29T07:13:38.180Z,94.67
2023-03-29T07:18:44.995Z,94.63
2023-03-29T07:23:58.282Z,94.42
2023-03-29T07:29:01.664Z,93.82
2023-03-29T07:34:06.256Z,92.84
2023-03-29T07:39:12.877Z,93.58
2023-03-29T07:44:21.728Z,93.85
2023-03-29T07:49:25.590Z,92.80
2023-03-29T07:54:33.227Z,94.57
2023-03-29T07:59:56.500Z,93.82
2023-03-29T08:05:03.595Z,94.06
2023-03-29T08:10:10.576Z,93.37
2023-03-29T08:15:35.030Z,93.32
2023-03-29T08:20:38.275Z,93.16
2023-03-29T08:25:42.738Z,93.02
2023-03-29T08:30:46.918Z,91.51
2023-03-29T08:35:51.132Z,90.86
2023-03-29T08:41:07.285Z,90.61
2023-03-29T08:46:23.235Z,90.83
2023-03-29T08:51:31.483Z,89.78
2023-03-29T08:56:39.729Z,89.07
2023-03-29T09:02:05.445Z,89.34
2023-03-29T09:07:11.014Z,90.32
2023-03-29T09:12:36.493Z,90.49
2023-03-29T09:18:00.660Z,92.41
2023-03-29T09:23:17.321Z,93.33
2023-03-29T09:28:57.326Z,92.28
2023-03-29T09:34:05.553Z,91.87
2023-03-29T09:39:24.094Z,92.50
2023-03-29T09:44:40.903Z,95.50
2023-03-29T09:49:51.761Z,95.47
2023-03-29T09:54:55.487Z,96.83
2023-03-29T10:00:23.619Z,95.55
2023-03-29T10:05:29.527Z,94.71
2023-03-29T10:10:36.830Z,95.39
2023-03-29T10:15:41.185Z,95.60
2023-03-29T10:20:44.265Z,96.86
2023-03-29T10:25:47.776Z,96.53
2023-03-29T10:30:57.564Z,97.01
2023-03-29T10:36:04.191Z,97.88
2023-03-29T10:41:11.762Z,97.45
2023-03-29T10:46:23.435Z,97.74
2023-03-29T10:51:30.186Z,98.05
2023-03-29T10:56:40.528Z,96.68
2023-03-29T11:01:52.779Z,94.56
2023-03-29T11:07:11.698Z,93.93
2023-03-29T11:12:24.173Z,93.99
2023-03-29T11:17:39.519Z,95.00
2023-03-29T11:22:51.554Z,94.36
2023-03-29T11:28:00.865Z,94.49
2023-03-29T11:33:18.129Z,94.18
2023-03-29T11:38:30.544Z,93.34
2023-03-29T11:43:37.191Z,94.33
2023-03-29T11:48:47.914Z,94.64
2023-03-29T11:54:04.949Z,96.53
2023-03-29T11:59:16.041Z,96.13
2023-03-29T12:04:25.891Z,93.94
2023-03-29T12:09:34.276Z,93.88
2023-03-29T12:14:51.739Z,93.44
2023-03-29T12:20:04.309Z,94.22
2023-03-29T12:25:18.177Z,92.81
2023-03-29T12:30:34.413Z,91.39
2023-03-29T12:35:52.368Z,90.54
2023-03-29T12:41:21.927Z,89.20
2023-03-29T12:46:45.695Z,88.91
2023-03-29T12:51:53.470Z,87.15
2023-03-29T12:57:00.338Z,87.86
2023-03-29T13:02:24.682Z,87.13
2023-03-29T13:07:44.623Z,87.85
2023-03-29T13:12:51.261Z,89.10
2023-03-29T13:18:03.567Z,88.04
2023-03-29T13:23:26.460Z,87.70
2023-03-29T13:28:39.336Z,87.81
2023-03-29T13:33:57.697Z,86.90
2023-03-29T13:39:07.740Z,87.62
2023-03-29T13:44:27.482Z,86.28
2023-03-29T13:49:35.377Z,86.94
2023-03-29T13:54:44.518Z,87.95
2023-03-29T13:59:56.223Z,87.63
2023-03-29T14:05:04.321Z,87.65
2023-03-29T14:10:17.509Z,87.49
2023-03-29T14:15:23.932Z,87.21
2023-03-29T14:20:27.556Z,87.67
2023-03-29T14:25:39.399Z,87.15
2023-03-29T14:30:46.671Z,87.04
2023-03-29T14:35:52.032Z,87.23
2023-03-29T14:41:01.361Z,86.16
2023-03-29T14:46:09.133Z,87.53
2023-03-29T14:51:12.622Z,87.43
2023-03-29T14:56:26.258Z,88.89
2023-03-29T15:01:29.735Z,88.38
2023-03-29T15:06:34.298Z,89.26
2023-03-29T15:11:40.038Z,89.12
2023-03-29T15:16:47.484Z,88.94
2023-03-29T15:21:52.228Z,90.00
2023-03-29T15:27:05.634Z,90.65
2023-03-29T15:32:10.386Z,92.27
2023-03-29T15:37:14.273Z,94.88
2023-03-29T15:42:18.813Z,94.17
2023-03-29T15:47:22.185Z,96.84
2023-03-29T15:52:25.754Z,97.13
2023-03-29T15:57:30.407Z,98.00
2023-03-29T16:02:37.013Z,98.30
2023-03-29T16:07:40.521Z,98.01
2023-03-29T16:12:45.028Z,97.44
2023-03-29T16:17:50.406Z,97.60
2023-03-29T16:22:54.323Z,97.09
2023-03-29T16:27:59.113Z,97.60
2023-03-29T16:33:06.272Z,97.91
2023-03-29T16:38:10.093Z,98.24
2023-03-29T16:43:19.189Z,98.34
2023-03-29T16:48:22.505Z,98.88
2023-03-29T16:53:26.522Z,98.53
2023-03-29T16:58:30.977Z,99.09
2023-03-29T17:03:34.017Z,99.55
2023-03-29T17:08:37.588Z,100.00
2023-03-29T17:13:42.174Z,100.00
2023-03-29T17:18:46.355Z,100.00
2023-03-29T17:23:51.501Z,100.00
2023-03-29T17:28:56.132Z,100.00
2023-03-29T17:33:59.270Z,100.00
2023-03-29T17:39:02.945Z,100.00
2023-03-29T17:44:07.525Z,100.00
2023-03-29T17:49:10.765Z,100.00
2023-03-29T17:54:13.792Z,100.00
2023-03-29T17:59:18.656Z,100.00
2023-03-29T18:04:21.821Z,100.00
2023-03-29T18:09:26.308Z,100.00
2023-03-29T18:14:32.328Z,100.00
2023-03-29T18:19:35.540Z,100.00
2023-03-29T18:24:38.751Z,100.00
2023-03-29T18:29:44.081Z,100.00
2023-03-29T18:34:47.172Z,100.00
2023-03-29T18:39:55.542Z,100.00
2023-03-29T18:45:00.412Z,100.00
2023-03-29T18:50:04.043Z,100.00
2023-03-29T18:55:08.512Z,100.00
2023-03-29T19:00:13.652Z,100.00
2023-03-29T19:05:17.126Z,100.00
2023-03-29T19:10:21.367Z,100.00
2023-03-29T19:15:26.439Z,100.00
2023-03-29T19:20:30.103Z,100.00
2023-03-29T19:25:33.632Z,100.00
2023-03-29T19:30:38.212Z,100.00
2023-03-29T19:35:41.753Z,100.00
2023-03-29T19:40:46.569Z,100.00
2023-03-29T19:45:53.452Z,100.00
2023-03-29T19:51:01.531Z,100.00
2023-03-29T19:56:06.659Z,100.00
2023-03-29T20:01:11.505Z,100.00
2023-03-29T20:06:14.795Z,100.00
2023-03-29T20:11:20.021Z,100.00
2023-03-29T20:16:26.213Z,100.00
2023-03-29T20:21:30.127Z,100.00
2023-03-29T20:26:33.155Z,100.00
2023-03-29T20:31:37.593Z,100.00
2023-03-29T20:36:41.611Z,100.00
2023-03-29T20:41:47.872Z,100.00
2023-03-29T20:47:03.426Z,100.00
2023-03-29T20:52:09.318Z,100.00
2023-03-29T20:57:14.319Z,100.00
2023-03-29T21:02:21.305Z,100.00
2023-03-29T21:07:24.764Z,100.00
2023-03-29T21:12:27.849Z,100.00
2023-03-29T21:17:35.012Z,100.00
2023-03-29T21:22:39.584Z,100.00
2023-03-29T21:27:42.999Z,100.00
2023-03-29T21:32:47.672Z,100.00
2023-03-29T21:37:53.819Z,100.00
2023-03-29T21:42:56.814Z,100.00
2023-03-29T21:48:01.603Z,100.00
2023-03-29T21:53:04.816Z,100.00
2023-03-29T21:58:07.848Z,100.00
2023-03-29T22:03:12.499Z,100.00
2023-03-29T22:08:15.629Z,100.00
2023-03-29T22:13:18.897Z,100.00
2023-03-29T22:18:23.684Z,100.00
2023-03-29T22:23:27.014Z,100.00
2023-03-29T22:28:29.992Z,100.00
2023-03-29T22:33:35.179Z,100.00
2023-03-29T22:38:38.280Z,100.00
2023-03-29T22:43:41.905Z,100.00
2023-03-29T22:48:46.354Z,100.00
2023-03-29T22:53:50.247Z,100.00
2023-03-29T22:58:53.271Z,100.00
2023-03-29T23:03:57.744Z,100.00
2023-03-29T23:09:00.894Z,100.00
2023-03-29T23:14:05.336Z,100.00
2023-03-29T23:19:09.740Z,100.00
2023-03-29T23:24:13.370Z,100.00
2023-03-29T23:29:16.458Z,100.00
2023-03-29T23:34:20.961Z,100.00
2023-03-29T23:39:25.212Z,100.00
2023-03-29T23:44:28.519Z,100.00
2023-03-29T23:49:33.342Z,100.00
2023-03-29T23:54:36.584Z,100.00
2023-03-29T23:59:40.160Z,100.00
